createdAt,value
2019-04-07T00:00:41.775Z,7.66
2019-04-07T00:03:08.493Z,7.46
2019-04-07T00:05:35.668Z,7.47
2019-04-07T00:08:03.358Z,7.42
2019-04-07T00:10:30.440Z,7.53
2019-04-07T00:12:57.394Z,7.41
2019-04-07T00:15:24.219Z,7.28
2019-04-07T00:17:51.073Z,7.29
2019-04-07T00:20:17.754Z,7.11
2019-04-07T00:22:44.377Z,7.06
2019-04-07T00:25:11.863Z,7.08
2019-04-07T00:27:39.155Z,7.14
2019-04-07T00:30:06.839Z,6.89
2019-04-07T00:32:35.007Z,6.84
2019-04-07T00:35:05.490Z,7.03
2019-04-07T00:37:32.738Z,6.99
2019-04-07T00:39:59.698Z,6.88
2019-04-07T00:42:27.371Z,6.88
2019-04-07T00:44:55.516Z,6.88
2019-04-07T00:47:22.067Z,6.83
2019-04-07T00:49:48.626Z,6.81
2019-04-07T00:52:17.327Z,6.47
2019-04-07T00:54:44.216Z,6.68
2019-04-07T00:57:10.999Z,6.72
2019-04-07T00:59:37.587Z,6.65
2019-04-07T01:02:04.472Z,6.70
2019-04-07T01:04:31.031Z,6.71
2019-04-07T01:06:57.620Z,6.47
2019-04-07T01:09:24.538Z,6.68
2019-04-07T01:11:52.260Z,6.63
2019-04-07T01:14:19.298Z,6.49
2019-04-07T01:16:46.143Z,6.58
2019-04-07T01:19:13.371Z,6.55
2019-04-07T01:21:40.548Z,6.48
2019-04-07T01:24:07.273Z,6.45
2019-04-07T01:26:34.052Z,6.11
2019-04-07T01:29:01.399Z,6.14
2019-04-07T01:31:28.773Z,6.19
2019-04-07T01:33:55.371Z,6.10
2019-04-07T01:36:22.588Z,6.09
2019-04-07T01:38:49.446Z,6.10
2019-04-07T01:41:18.604Z,5.98
2019-04-07T01:43:48.082Z,6.01
2019-04-07T01:46:17.514Z,5.96
2019-04-07T01:48:46.829Z,5.96
2019-04-07T01:51:15.749Z,5.87
2019-04-07T01:53:44.598Z,5.90
2019-04-07T01:56:14.041Z,5.76
2019-04-07T01:58:42.882Z,5.86
2019-04-07T02:01:12.044Z,5.89
2019-04-07T02:03:41.925Z,5.98
2019-04-07T02:06:12.015Z,5.90
2019-04-07T02:08:41.722Z,5.79
2019-04-07T02:11:10.619Z,5.85
2019-04-07T02:13:40.450Z,6.04
2019-04-07T02:16:10.280Z,5.87
2019-04-07T02:18:38.917Z,5.68
2019-04-07T02:21:08.444Z,5.72
2019-04-07T02:23:37.275Z,5.69
2019-04-07T02:26:06.053Z,5.50
2019-04-07T02:28:35.045Z,5.66
2019-04-07T02:31:06.101Z,5.75
2019-04-07T02:33:35.002Z,5.83
2019-04-07T02:36:15.703Z,5.67
2019-04-07T02:38:34.570Z,5.62
2019-04-07T02:41:04.216Z,5.61
2019-04-07T02:43:33.930Z,5.43
2019-04-07T02:46:02.806Z,5.51
2019-04-07T02:48:32.240Z,5.54
2019-04-07T02:51:01.311Z,5.48
2019-04-07T02:53:30.805Z,5.48
2019-04-07T02:55:57.814Z,5.34
2019-04-07T02:58:27.157Z,5.17
2019-04-07T03:00:56.219Z,5.24
2019-04-07T03:03:24.983Z,5.36
2019-04-07T03:05:55.076Z,5.36
2019-04-07T03:08:25.067Z,5.33
2019-04-07T03:10:55.482Z,5.24
2019-04-07T03:13:24.588Z,5.37
2019-04-07T03:15:53.470Z,5.19
2019-04-07T03:18:26.246Z,5.11
2019-04-07T03:20:53.836Z,5.09
2019-04-07T03:23:22.783Z,4.94
2019-04-07T03:25:51.345Z,4.88
2019-04-07T03:28:19.941Z,4.99
2019-04-07T03:30:48.939Z,5.07
2019-04-07T03:33:21.177Z,5.35
2019-04-07T03:35:50.952Z,5.49
2019-04-07T03:38:19.014Z,5.12
2019-04-07T03:40:48.202Z,5.05
2019-04-07T03:43:17.716Z,5.25
2019-04-07T03:45:46.718Z,5.30
2019-04-07T03:48:15.795Z,5.44
2019-04-07T03:50:44.825Z,5.61
2019-04-07T03:53:13.611Z,5.45
2019-04-07T03:55:42.427Z,5.55
2019-04-07T03:58:12.203Z,5.67
2019-04-07T04:00:45.217Z,5.65
2019-04-07T04:03:14.944Z,5.72
2019-04-07T04:05:45.166Z,5.75
2019-04-07T04:08:13.983Z,5.83
2019-04-07T04:10:43.531Z,5.86
2019-04-07T04:13:12.349Z,6.01
2019-04-07T04:15:41.540Z,6.10
2019-04-07T04:18:08.298Z,6.22
2019-04-07T04:20:34.914Z,6.26
2019-04-07T04:23:01.531Z,6.38
2019-04-07T04:25:28.354Z,6.18
2019-04-07T04:27:55.110Z,6.28
2019-04-07T04:30:21.783Z,6.18
2019-04-07T04:32:48.514Z,6.31
2019-04-07T04:35:15.090Z,6.38
2019-04-07T04:37:48.205Z,6.45
2019-04-07T04:40:11.374Z,6.38
2019-04-07T04:42:37.989Z,6.37
2019-04-07T04:45:08.037Z,6.38
2019-04-07T04:47:35.079Z,6.35
2019-04-07T04:50:06.700Z,6.48
2019-04-07T04:52:34.777Z,6.40
2019-04-07T04:55:02.028Z,6.48
2019-04-07T04:57:29.019Z,6.56
2019-04-07T04:59:55.975Z,6.76
2019-04-07T05:02:23.562Z,6.74
2019-04-07T05:04:50.540Z,6.78
2019-04-07T05:07:17.138Z,6.83
2019-04-07T05:09:48.874Z,6.78
2019-04-07T05:12:12.811Z,7.04
2019-04-07T05:14:40.073Z,7.04
2019-04-07T05:17:07.389Z,6.95
2019-04-07T05:19:34.443Z,7.02
2019-04-07T05:22:01.362Z,7.02
2019-04-07T05:24:28.411Z,7.17
2019-04-07T05:26:55.812Z,7.19
2019-04-07T05:29:22.844Z,7.37
2019-04-07T05:31:50.298Z,7.38
2019-04-07T05:34:20.408Z,7.38
2019-04-07T05:36:45.799Z,7.38
2019-04-07T05:39:12.770Z,7.56
2019-04-07T05:41:39.600Z,7.64
2019-04-07T05:44:06.398Z,7.67
2019-04-07T05:46:33.558Z,7.78
2019-04-07T05:49:00.581Z,7.91
2019-04-07T05:51:30.041Z,7.92
2019-04-07T05:53:55.975Z,8.03
2019-04-07T05:56:25.889Z,8.01
2019-04-07T05:58:51.705Z,8.08
2019-04-07T06:01:22.574Z,8.17
2019-04-07T06:03:47.888Z,8.06
2019-04-07T06:06:14.872Z,8.06
2019-04-07T06:08:42.241Z,8.09
2019-04-07T06:11:08.947Z,8.18
2019-04-07T06:13:35.619Z,8.34
2019-04-07T06:16:03.053Z,8.37
2019-04-07T06:18:33.363Z,8.36
2019-04-07T06:20:58.612Z,8.29
2019-04-07T06:23:28.564Z,8.44
2019-04-07T06:25:57.164Z,8.42
2019-04-07T06:28:22.762Z,8.47
2019-04-07T06:30:49.590Z,8.57
2019-04-07T06:33:16.358Z,8.60
2019-04-07T06:35:44.993Z,8.67
2019-04-07T06:38:12.274Z,8.66
2019-04-07T06:40:39.330Z,8.65
2019-04-07T06:43:06.344Z,8.69
2019-04-07T06:45:36.127Z,8.53
2019-04-07T06:48:07.715Z,8.59
2019-04-07T06:50:45.462Z,8.81
2019-04-07T06:53:10.600Z,8.94
2019-04-07T06:55:36.721Z,8.92
2019-04-07T06:58:07.559Z,9.02
2019-04-07T07:00:36.457Z,9.07
2019-04-07T07:03:05.325Z,8.97
2019-04-07T07:05:35.985Z,9.19
2019-04-07T07:08:05.032Z,9.42
2019-04-07T07:10:37.736Z,9.60
2019-04-07T07:13:09.408Z,9.64
2019-04-07T07:15:36.423Z,9.76
2019-04-07T07:18:05.784Z,9.78
2019-04-07T07:20:34.438Z,9.90
2019-04-07T07:23:03.880Z,10.13
2019-04-07T07:25:32.160Z,10.27
2019-04-07T07:28:01.582Z,10.61
2019-04-07T07:30:28.473Z,10.59
2019-04-07T07:32:55.277Z,10.68
2019-04-07T07:35:22.356Z,10.76
2019-04-07T07:37:50.022Z,10.91
2019-04-07T07:40:18.330Z,10.60
2019-04-07T07:42:48.649Z,10.81
2019-04-07T07:45:14.233Z,10.76
2019-04-07T07:47:41.582Z,11.16
2019-04-07T07:50:10.221Z,11.16
2019-04-07T07:52:37.662Z,11.12
2019-04-07T07:55:06.089Z,11.13
2019-04-07T07:57:32.819Z,11.29
2019-04-07T08:00:00.287Z,11.61
2019-04-07T08:02:29.030Z,11.66
2019-04-07T08:04:58.387Z,12.12
2019-04-07T08:07:24.743Z,11.99
2019-04-07T08:09:54.062Z,12.08
2019-04-07T08:12:20.640Z,12.65
2019-04-07T08:14:50.398Z,12.75
2019-04-07T08:17:17.204Z,12.87
2019-04-07T08:19:45.406Z,12.89
2019-04-07T08:22:25.329Z,12.86
2019-04-07T08:24:42.035Z,12.85
2019-04-07T08:27:10.506Z,13.15
2019-04-07T08:29:39.021Z,13.06
2019-04-07T08:32:06.608Z,13.09
2019-04-07T08:34:33.473Z,13.25
2019-04-07T08:37:00.854Z,13.59
2019-04-07T08:39:32.376Z,13.57
2019-04-07T08:41:57.219Z,13.13
2019-04-07T08:44:27.439Z,13.37
2019-04-07T08:46:52.941Z,13.55
2019-04-07T08:49:23.696Z,13.44
2019-04-07T08:51:48.526Z,13.54
2019-04-07T08:54:16.930Z,13.62
2019-04-07T08:56:43.687Z,13.56
2019-04-07T08:59:13.901Z,13.69
2019-04-07T09:01:38.946Z,13.63
2019-04-07T09:04:09.359Z,13.60
2019-04-07T09:06:36.206Z,13.53
2019-04-07T09:09:07.915Z,13.78
2019-04-07T09:11:34.844Z,13.56
2019-04-07T09:14:04.197Z,13.80
2019-04-07T09:16:32.589Z,13.91
2019-04-07T09:19:04.976Z,14.04
2019-04-07T09:21:38.726Z,14.33
2019-04-07T09:24:02.530Z,14.55
2019-04-07T09:26:31.127Z,14.42
2019-04-07T09:28:59.613Z,14.21
2019-04-07T09:31:28.295Z,14.48
2019-04-07T09:33:58.663Z,14.96
2019-04-07T09:36:27.653Z,14.70
2019-04-07T09:39:01.435Z,14.52
2019-04-07T09:41:29.525Z,14.68
2019-04-07T09:44:01.147Z,14.53
2019-04-07T09:46:29.048Z,15.10
2019-04-07T09:48:57.700Z,14.87
2019-04-07T09:51:26.558Z,14.95
2019-04-07T09:53:55.653Z,14.97
2019-04-07T09:56:29.191Z,15.00
2019-04-07T09:58:55.617Z,15.12
2019-04-07T10:01:27.822Z,15.29
2019-04-07T10:03:55.553Z,15.34
2019-04-07T10:06:27.628Z,15.67
2019-04-07T10:08:58.883Z,15.69
2019-04-07T10:11:28.517Z,15.67
2019-04-07T10:13:57.781Z,15.25
2019-04-07T10:16:27.040Z,15.58
2019-04-07T10:18:57.652Z,15.66
2019-04-07T10:21:26.487Z,15.64
2019-04-07T10:23:55.303Z,15.63
2019-04-07T10:26:24.399Z,15.51
2019-04-07T10:28:53.246Z,15.34
2019-04-07T10:31:22.446Z,15.41
2019-04-07T10:33:51.487Z,15.67
2019-04-07T10:36:20.642Z,16.02
2019-04-07T10:38:51.453Z,15.76
2019-04-07T10:41:20.738Z,15.86
2019-04-07T10:43:50.287Z,15.89
2019-04-07T10:46:19.121Z,15.64
2019-04-07T10:48:47.771Z,15.52
2019-04-07T10:51:17.483Z,16.09
2019-04-07T10:53:46.243Z,16.27
2019-04-07T10:56:14.733Z,16.22
2019-04-07T10:58:43.615Z,16.25
2019-04-07T11:01:12.631Z,15.84
2019-04-07T11:03:41.327Z,15.93
2019-04-07T11:06:09.895Z,16.06
2019-04-07T11:08:38.416Z,16.52
2019-04-07T11:11:07.879Z,16.39
2019-04-07T11:13:36.520Z,16.50
2019-04-07T11:16:08.146Z,16.63
2019-04-07T11:18:36.740Z,16.40
2019-04-07T11:21:05.546Z,16.73
2019-04-07T11:23:34.852Z,16.42
2019-04-07T11:26:04.556Z,16.59
2019-04-07T11:28:34.083Z,16.71
2019-04-07T11:31:02.566Z,16.37
2019-04-07T11:33:31.914Z,16.80
2019-04-07T11:36:00.708Z,16.57
2019-04-07T11:38:32.289Z,16.63
2019-04-07T11:41:02.554Z,16.56
2019-04-07T11:43:32.534Z,17.03
2019-04-07T11:46:03.274Z,16.81
2019-04-07T11:48:33.104Z,16.80
2019-04-07T11:51:02.102Z,17.04
2019-04-07T11:53:30.775Z,17.10
2019-04-07T11:56:01.476Z,17.03
2019-04-07T11:58:33.218Z,17.05
2019-04-07T12:01:00.722Z,16.81
2019-04-07T12:03:29.948Z,16.58
2019-04-07T12:05:59.792Z,16.86
2019-04-07T12:08:33.390Z,17.15
2019-04-07T12:11:02.834Z,17.30
2019-04-07T12:13:31.284Z,17.49
2019-04-07T12:16:00.410Z,17.45
2019-04-07T12:18:29.780Z,17.26
2019-04-07T12:21:02.486Z,17.19
2019-04-07T12:23:29.182Z,16.83
2019-04-07T12:25:57.894Z,16.93
2019-04-07T12:28:26.833Z,17.03
2019-04-07T12:30:56.364Z,17.03
2019-04-07T12:33:25.308Z,16.99
2019-04-07T12:35:56.039Z,16.88
2019-04-07T12:38:25.267Z,16.96
2019-04-07T12:41:03.986Z,17.11
2019-04-07T12:43:24.976Z,17.01
2019-04-07T12:45:53.756Z,16.98
2019-04-07T12:48:23.105Z,17.25
2019-04-07T12:50:52.339Z,17.57
2019-04-07T12:53:21.916Z,17.13
2019-04-07T12:55:57.581Z,17.32
2019-04-07T12:58:21.457Z,17.41
2019-04-07T13:00:57.771Z,17.01
2019-04-07T13:03:21.154Z,16.88
2019-04-07T13:05:50.895Z,17.12
2019-04-07T13:08:22.590Z,17.26
2019-04-07T13:10:51.177Z,17.48
2019-04-07T13:13:22.280Z,17.62
2019-04-07T13:15:51.284Z,17.85
2019-04-07T13:18:20.571Z,17.70
2019-04-07T13:20:51.053Z,17.75
2019-04-07T13:23:19.795Z,17.84
2019-04-07T13:25:53.173Z,17.43
2019-04-07T13:28:19.543Z,17.78
2019-04-07T13:30:48.830Z,17.81
2019-04-07T13:33:20.390Z,17.85
2019-04-07T13:35:48.880Z,17.72
2019-04-07T13:38:17.625Z,17.54
2019-04-07T13:40:47.257Z,17.67
2019-04-07T13:43:16.557Z,17.48
2019-04-07T13:45:46.288Z,17.33
2019-04-07T13:48:17.556Z,17.81
2019-04-07T13:50:44.954Z,17.80
2019-04-07T13:53:14.558Z,17.37
2019-04-07T13:55:44.173Z,17.76
2019-04-07T13:58:14.039Z,17.46
2019-04-07T14:00:42.940Z,18.18
2019-04-07T14:03:14.523Z,17.85
2019-04-07T14:05:43.184Z,17.90
2019-04-07T14:08:11.817Z,18.27
2019-04-07T14:10:39.331Z,17.89
2019-04-07T14:13:11.002Z,18.05
2019-04-07T14:15:39.623Z,18.06
2019-04-07T14:18:08.971Z,18.11
2019-04-07T14:20:38.657Z,18.50
2019-04-07T14:23:08.465Z,18.53
2019-04-07T14:25:37.533Z,19.16
2019-04-07T14:28:06.155Z,19.28
2019-04-07T14:30:35.446Z,18.68
2019-04-07T14:33:04.607Z,19.12
2019-04-07T14:35:33.607Z,19.10
2019-04-07T14:38:02.658Z,19.08
2019-04-07T14:40:31.865Z,19.03
2019-04-07T14:43:01.144Z,18.92
2019-04-07T14:45:29.992Z,18.71
2019-04-07T14:48:02.160Z,19.07
2019-04-07T14:50:32.092Z,19.42
2019-04-07T14:53:00.940Z,19.49
2019-04-07T14:55:30.287Z,19.30
2019-04-07T14:57:59.059Z,19.06
2019-04-07T15:00:28.121Z,18.72
2019-04-07T15:02:55.450Z,18.75
2019-04-07T15:05:25.369Z,18.93
2019-04-07T15:07:57.947Z,18.70
2019-04-07T15:10:25.038Z,18.53
2019-04-07T15:12:53.579Z,18.19
2019-04-07T15:15:21.281Z,18.40
2019-04-07T15:17:48.814Z,18.05
2019-04-07T15:20:17.636Z,18.32
2019-04-07T15:22:46.831Z,17.69
2019-04-07T15:25:13.345Z,17.54
2019-04-07T15:27:40.473Z,17.80
2019-04-07T15:30:13.266Z,17.65
2019-04-07T15:32:38.275Z,17.66
2019-04-07T15:35:06.263Z,17.42
2019-04-07T15:37:33.666Z,17.11
2019-04-07T15:40:02.677Z,17.37
2019-04-07T15:42:36.020Z,17.61
2019-04-07T15:44:57.756Z,17.72
2019-04-07T15:47:24.456Z,17.57
2019-04-07T15:49:51.357Z,17.57
2019-04-07T15:52:19.593Z,17.28
2019-04-07T15:54:46.874Z,17.09
2019-04-07T15:57:13.507Z,17.23
2019-04-07T15:59:42.378Z,16.88
2019-04-07T16:02:11.229Z,16.97
2019-04-07T16:04:38.276Z,16.65
2019-04-07T16:07:05.190Z,16.64
2019-04-07T16:09:41.992Z,16.55
2019-04-07T16:12:01.907Z,16.71
2019-04-07T16:14:28.663Z,16.50
2019-04-07T16:16:55.520Z,16.26
2019-04-07T16:19:35.055Z,16.27
2019-04-07T16:21:52.322Z,16.17
2019-04-07T16:24:21.942Z,15.87
2019-04-07T16:26:47.939Z,15.94
2019-04-07T16:29:17.772Z,15.87
2019-04-07T16:31:43.648Z,15.97
2019-04-07T16:34:10.745Z,15.65
2019-04-07T16:36:38.394Z,15.71
2019-04-07T16:39:09.330Z,15.58
2019-04-07T16:41:36.794Z,15.45
2019-04-07T16:44:06.989Z,15.23
2019-04-07T16:46:32.532Z,15.15
2019-04-07T16:48:59.794Z,14.94
2019-04-07T16:51:29.439Z,14.81
2019-04-07T16:53:57.226Z,14.61
2019-04-07T16:56:23.843Z,14.73
2019-04-07T16:58:50.461Z,14.51
2019-04-07T17:01:17.425Z,14.23
2019-04-07T17:03:45.261Z,14.09
2019-04-07T17:06:12.470Z,13.92
2019-04-07T17:08:44.149Z,13.76
2019-04-07T17:11:11.128Z,13.53
2019-04-07T17:13:42.672Z,13.40
2019-04-07T17:16:10.996Z,13.23
2019-04-07T17:18:41.755Z,13.15
2019-04-07T17:21:13.988Z,13.05
2019-04-07T17:23:45.512Z,12.88
2019-04-07T17:26:13.640Z,12.70
2019-04-07T17:28:44.612Z,12.55
2019-04-07T17:31:09.645Z,12.36
2019-04-07T17:33:37.925Z,12.22
2019-04-07T17:36:06.620Z,12.07
2019-04-07T17:38:38.266Z,12.04
2019-04-07T17:41:07.923Z,11.86
2019-04-07T17:43:47.327Z,11.72
2019-04-07T17:46:06.665Z,11.66
2019-04-07T17:48:41.000Z,11.57
2019-04-07T17:51:07.760Z,11.50
2019-04-07T17:53:38.105Z,11.35
2019-04-07T17:56:07.165Z,11.26
2019-04-07T18:01:24.685Z,10.95
2019-04-07T18:03:56.151Z,10.81
2019-04-07T18:06:24.065Z,10.74
2019-04-07T18:09:03.969Z,10.73
2019-04-07T18:11:25.123Z,10.60
2019-04-07T18:13:56.648Z,10.55
2019-04-07T18:16:22.549Z,10.47
2019-04-07T18:18:56.258Z,10.30
2019-04-07T18:21:23.168Z,10.19
2019-04-07T18:23:53.933Z,10.03
2019-04-07T18:26:20.716Z,10.00
2019-04-07T18:28:53.343Z,9.94
2019-04-07T18:31:20.078Z,9.83
2019-04-07T18:33:50.742Z,9.79
2019-04-07T18:36:19.584Z,9.71
2019-04-07T18:38:50.260Z,9.66
2019-04-07T18:41:20.724Z,9.54
2019-04-07T18:43:57.821Z,9.36
2019-04-07T18:46:21.400Z,9.32
2019-04-07T18:48:50.177Z,9.26
2019-04-07T18:51:20.099Z,9.19
2019-04-07T18:53:48.900Z,9.06
2019-04-07T18:56:20.097Z,8.93
2019-04-07T18:58:50.865Z,8.90
2019-04-07T19:01:18.647Z,8.83
2019-04-07T19:03:51.040Z,8.80
2019-04-07T19:06:18.110Z,8.81
2019-04-07T19:08:49.418Z,8.81
2019-04-07T19:11:18.197Z,8.70
2019-04-07T19:13:47.984Z,8.57
2019-04-07T19:16:20.468Z,8.61
2019-04-07T19:18:48.807Z,8.56
2019-04-07T19:21:18.327Z,8.52
2019-04-07T19:23:47.257Z,8.40
2019-04-07T19:26:18.200Z,8.45
2019-04-07T19:28:46.560Z,8.39
2019-04-07T19:31:17.481Z,8.29
2019-04-07T19:33:45.593Z,8.14
2019-04-07T19:36:16.774Z,8.14
2019-04-07T19:38:47.503Z,8.06
2019-04-07T19:41:15.398Z,8.07
2019-04-07T19:43:44.657Z,8.09
2019-04-07T19:46:13.538Z,7.99
2019-04-07T19:48:42.754Z,7.92
2019-04-07T19:51:11.535Z,7.82
2019-04-07T19:53:43.246Z,7.74
2019-04-07T19:56:10.274Z,7.70
2019-04-07T19:58:39.459Z,7.56
2019-04-07T20:01:08.368Z,7.44
2019-04-07T20:03:39.876Z,7.39
2019-04-07T20:06:07.990Z,7.32
2019-04-07T20:08:37.435Z,7.21
2019-04-07T20:11:06.381Z,7.20
2019-04-07T20:13:39.501Z,7.16
2019-04-07T20:16:08.191Z,7.19
2019-04-07T20:18:37.402Z,7.17
2019-04-07T20:21:08.285Z,7.16
2019-04-07T20:23:37.123Z,7.23
2019-04-07T20:26:05.948Z,7.21
2019-04-07T20:28:34.561Z,7.21
2019-04-07T20:31:04.370Z,7.50
2019-04-07T20:33:34.452Z,7.60
2019-04-07T20:36:03.216Z,7.63
2019-04-07T20:38:31.932Z,7.57
2019-04-07T20:41:00.674Z,7.39
2019-04-07T20:43:29.265Z,7.21
2019-04-07T20:45:58.762Z,6.75
2019-04-07T20:48:31.601Z,7.03
2019-04-07T20:50:58.349Z,6.99
2019-04-07T20:53:29.697Z,6.40
2019-04-07T20:55:58.214Z,6.29
2019-04-07T20:58:41.606Z,6.37
2019-04-07T21:01:02.457Z,6.19
2019-04-07T21:03:28.878Z,5.98
2019-04-07T21:05:58.123Z,5.94
2019-04-07T21:08:30.223Z,5.82
2019-04-07T21:10:58.110Z,5.78
2019-04-07T21:13:26.795Z,5.70
2019-04-07T21:15:55.427Z,5.66
2019-04-07T21:18:24.349Z,5.81
2019-04-07T21:20:54.815Z,5.80
2019-04-07T21:23:23.801Z,6.09
2019-04-07T21:25:55.112Z,5.77
2019-04-07T21:28:23.360Z,5.52
2019-04-07T21:30:52.014Z,5.51
2019-04-07T21:33:23.792Z,5.49
2019-04-07T21:35:52.494Z,5.38
2019-04-07T21:38:24.252Z,5.36
2019-04-07T21:40:52.044Z,5.44
2019-04-07T21:43:24.314Z,5.33
2019-04-07T21:45:54.180Z,5.42
2019-04-07T21:48:22.083Z,5.31
2019-04-07T21:50:51.592Z,5.26
2019-04-07T21:53:22.531Z,5.15
2019-04-07T21:55:51.048Z,5.16
2019-04-07T21:58:22.024Z,5.25
2019-04-07T22:00:51.008Z,5.30
2019-04-07T22:03:21.031Z,5.28
2019-04-07T22:05:49.039Z,5.19
2019-04-07T22:08:19.970Z,4.96
2019-04-07T22:10:47.894Z,4.82
2019-04-07T22:13:15.515Z,4.87
2019-04-07T22:15:48.223Z,4.95
2019-04-07T22:18:11.143Z,4.83
2019-04-07T22:20:39.021Z,4.76
2019-04-07T22:23:09.279Z,4.70
2019-04-07T22:25:40.949Z,4.66
2019-04-07T22:28:08.079Z,4.58
2019-04-07T22:30:40.111Z,4.68
2019-04-07T22:33:04.143Z,4.67
2019-04-07T22:35:31.977Z,4.52
2019-04-07T22:37:58.914Z,4.42
2019-04-07T22:40:26.650Z,4.31
2019-04-07T22:42:54.164Z,4.35
2019-04-07T22:45:25.310Z,4.20
2019-04-07T22:47:52.441Z,4.21
2019-04-07T22:50:18.674Z,4.29
2019-04-07T22:52:49.201Z,4.32
2019-04-07T22:55:14.371Z,4.20
2019-04-07T22:57:41.958Z,4.11
2019-04-07T23:00:12.790Z,3.95
2019-04-07T23:02:42.308Z,3.82
2019-04-07T23:05:09.604Z,3.74
2019-04-07T23:07:36.273Z,3.65
2019-04-07T23:10:04.648Z,3.69
2019-04-07T23:12:32.849Z,3.67
2019-04-07T23:14:59.771Z,3.55
2019-04-07T23:17:26.353Z,3.55
2019-04-07T23:19:53.174Z,3.50
2019-04-07T23:22:20.126Z,3.41
2019-04-07T23:24:47.433Z,3.36
2019-04-07T23:27:14.569Z,3.33
2019-04-07T23:29:44.418Z,3.34
2019-04-07T23:32:11.705Z,3.26
2019-04-07T23:34:39.420Z,3.25
2019-04-07T23:37:06.540Z,3.20
2019-04-07T23:39:33.461Z,3.22
2019-04-07T23:42:00.692Z,3.36
2019-04-07T23:44:27.726Z,3.30
2019-04-07T23:46:55.079Z,3.37
2019-04-07T23:49:22.537Z,3.33
2019-04-07T23:51:49.276Z,3.37
2019-04-07T23:54:16.452Z,3.17
2019-04-07T23:56:43.801Z,3.07
2019-04-07T23:59:11.860Z,3.06
